sensor_id;sensor_type;location;lat;lon;timestamp;P1;durP1;ratioP1;P2;durP2;ratioP2
56427;SDS011;42331;53.578;9.760;2023-08-06T00:01:01;0.47;;;0.28;;
56427;SDS011;42331;53.578;9.760;2023-08-06T00:03:32;1.05;;;0.40;;
56427;SDS011;42331;53.578;9.760;2023-08-06T00:06:04;0.40;;;0.28;;
56427;SDS011;42331;53.578;9.760;2023-08-06T00:08:36;0.52;;;0.40;;
56427;SDS011;42331;53.578;9.760;2023-08-06T00:11:06;1.13;;;0.35;;
56427;SDS011;42331;53.578;9.760;2023-08-06T00:13:37;0.55;;;0.35;;
56427;SDS011;42331;53.578;9.760;2023-08-06T00:16:11;0.80;;;0.40;;
56427;SDS011;42331;53.578;9.760;2023-08-06T00:18:43;0.70;;;0.50;;
56427;SDS011;42331;53.578;9.760;2023-08-06T00:21:14;0.93;;;0.63;;
56427;SDS011;42331;53.578;9.760;2023-08-06T00:23:44;1.38;;;0.57;;
56427;SDS011;42331;53.578;9.760;2023-08-06T00:26:15;0.63;;;0.40;;
56427;SDS011;42331;53.578;9.760;2023-08-06T00:28:46;1.30;;;0.47;;
56427;SDS011;42331;53.578;9.760;2023-08-06T00:31:23;0.60;;;0.40;;
56427;SDS011;42331;53.578;9.760;2023-08-06T00:33:54;1.10;;;0.50;;
56427;SDS011;42331;53.578;9.760;2023-08-06T00:36:24;0.77;;;0.40;;
56427;SDS011;42331;53.578;9.760;2023-08-06T00:38:55;1.40;;;0.60;;
56427;SDS011;42331;53.578;9.760;2023-08-06T00:41:26;0.95;;;0.60;;
56427;SDS011;42331;53.578;9.760;2023-08-06T00:43:56;0.50;;;0.30;;
56427;SDS011;42331;53.578;9.760;2023-08-06T00:46:27;1.08;;;0.60;;
56427;SDS011;42331;53.578;9.760;2023-08-06T00:48:58;0.93;;;0.50;;
56427;SDS011;42331;53.578;9.760;2023-08-06T00:51:29;1.10;;;0.70;;
56427;SDS011;42331;53.578;9.760;2023-08-06T00:54:01;1.13;;;0.60;;
56427;SDS011;42331;53.578;9.760;2023-08-06T00:56:32;1.10;;;0.47;;
56427;SDS011;42331;53.578;9.760;2023-08-06T00:59:07;0.95;;;0.55;;
56427;SDS011;42331;53.578;9.760;2023-08-06T01:01:40;0.80;;;0.43;;
56427;SDS011;42331;53.578;9.760;2023-08-06T01:04:11;0.73;;;0.40;;
56427;SDS011;42331;53.578;9.760;2023-08-06T01:06:47;1.20;;;0.60;;
56427;SDS011;42331;53.578;9.760;2023-08-06T01:15:07;1.00;;;0.50;;
56427;SDS011;42331;53.578;9.760;2023-08-06T01:17:42;0.80;;;0.50;;
56427;SDS011;42331;53.578;9.760;2023-08-06T01:20:15;1.13;;;0.70;;
56427;SDS011;42331;53.578;9.760;2023-08-06T01:22:45;1.08;;;0.47;;
56427;SDS011;42331;53.578;9.760;2023-08-06T01:25:16;1.63;;;0.85;;
56427;SDS011;42331;53.578;9.760;2023-08-06T01:27:50;0.90;;;0.60;;
56427;SDS011;42331;53.578;9.760;2023-08-06T01:30:25;1.20;;;0.75;;
56427;SDS011;42331;53.578;9.760;2023-08-06T01:33:00;1.02;;;0.60;;
56427;SDS011;42331;53.578;9.760;2023-08-06T01:35:34;1.33;;;0.73;;
56427;SDS011;42331;53.578;9.760;2023-08-06T01:38:06;1.30;;;0.60;;
56427;SDS011;42331;53.578;9.760;2023-08-06T01:40:37;1.52;;;0.93;;
56427;SDS011;42331;53.578;9.760;2023-08-06T01:43:08;0.80;;;0.50;;
56427;SDS011;42331;53.578;9.760;2023-08-06T01:45:39;1.80;;;0.90;;
56427;SDS011;42331;53.578;9.760;2023-08-06T01:48:10;1.75;;;0.75;;
56427;SDS011;42331;53.578;9.760;2023-08-06T01:50:40;1.38;;;0.80;;
56427;SDS011;42331;53.578;9.760;2023-08-06T01:53:11;1.80;;;0.80;;
56427;SDS011;42331;53.578;9.760;2023-08-06T01:55:42;1.35;;;0.77;;
56427;SDS011;42331;53.578;9.760;2023-08-06T01:58:17;1.80;;;0.80;;
56427;SDS011;42331;53.578;9.760;2023-08-06T02:00:48;2.22;;;0.80;;
56427;SDS011;42331;53.578;9.760;2023-08-06T02:03:18;1.73;;;1.00;;
56427;SDS011;42331;53.578;9.760;2023-08-06T02:05:49;1.93;;;1.00;;
56427;SDS011;42331;53.578;9.760;2023-08-06T02:08:20;1.70;;;0.80;;
56427;SDS011;42331;53.578;9.760;2023-08-06T02:10:50;1.65;;;0.90;;
56427;SDS011;42331;53.578;9.760;2023-08-06T02:13:21;2.50;;;1.03;;
56427;SDS011;42331;53.578;9.760;2023-08-06T02:15:52;2.47;;;1.00;;
56427;SDS011;42331;53.578;9.760;2023-08-06T02:18:22;1.60;;;0.93;;
56427;SDS011;42331;53.578;9.760;2023-08-06T02:20:57;2.17;;;1.00;;
56427;SDS011;42331;53.578;9.760;2023-08-06T02:23:28;1.27;;;0.73;;
56427;SDS011;42331;53.578;9.760;2023-08-06T02:26:00;2.45;;;1.27;;
56427;SDS011;42331;53.578;9.760;2023-08-06T02:28:31;1.35;;;0.80;;
56427;SDS011;42331;53.578;9.760;2023-08-06T02:31:02;2.05;;;1.45;;
56427;SDS011;42331;53.578;9.760;2023-08-06T02:33:33;1.98;;;1.10;;
56427;SDS011;42331;53.578;9.760;2023-08-06T02:36:04;2.07;;;1.30;;
56427;SDS011;42331;53.578;9.760;2023-08-06T02:38:35;2.97;;;1.17;;
56427;SDS011;42331;53.578;9.760;2023-08-06T02:41:05;2.03;;;1.27;;
56427;SDS011;42331;53.578;9.760;2023-08-06T02:43:36;1.65;;;0.98;;
56427;SDS011;42331;53.578;9.760;2023-08-06T02:46:07;2.00;;;0.98;;
56427;SDS011;42331;53.578;9.760;2023-08-06T02:48:38;2.30;;;1.20;;
56427;SDS011;42331;53.578;9.760;2023-08-06T02:53:52;1.83;;;0.95;;
56427;SDS011;42331;53.578;9.760;2023-08-06T02:56:23;1.30;;;0.82;;
56427;SDS011;42331;53.578;9.760;2023-08-06T02:58:54;2.17;;;1.20;;
56427;SDS011;42331;53.578;9.760;2023-08-06T03:01:24;1.23;;;0.63;;
56427;SDS011;42331;53.578;9.760;2023-08-06T03:06:27;2.22;;;1.00;;
56427;SDS011;42331;53.578;9.760;2023-08-06T03:08:58;1.43;;;0.90;;
56427;SDS011;42331;53.578;9.760;2023-08-06T03:11:28;2.23;;;1.10;;
56427;SDS011;42331;53.578;9.760;2023-08-06T03:13:59;1.77;;;0.93;;
56427;SDS011;42331;53.578;9.760;2023-08-06T03:16:30;1.80;;;1.02;;
56427;SDS011;42331;53.578;9.760;2023-08-06T03:19:00;1.52;;;0.80;;
56427;SDS011;42331;53.578;9.760;2023-08-06T03:21:31;1.52;;;0.80;;
56427;SDS011;42331;53.578;9.760;2023-08-06T03:24:02;3.53;;;1.77;;
56427;SDS011;42331;53.578;9.760;2023-08-06T03:26:33;1.13;;;0.70;;
56427;SDS011;42331;53.578;9.760;2023-08-06T03:29:03;1.47;;;0.87;;
56427;SDS011;42331;53.578;9.760;2023-08-06T03:31:34;5.97;;;1.13;;
56427;SDS011;42331;53.578;9.760;2023-08-06T03:34:05;1.35;;;0.88;;
56427;SDS011;42331;53.578;9.760;2023-08-06T03:36:36;1.67;;;0.90;;
56427;SDS011;42331;53.578;9.760;2023-08-06T03:39:07;1.57;;;0.90;;
56427;SDS011;42331;53.578;9.760;2023-08-06T03:41:37;1.83;;;1.10;;
56427;SDS011;42331;53.578;9.760;2023-08-06T03:44:08;1.88;;;1.10;;
56427;SDS011;42331;53.578;9.760;2023-08-06T03:46:39;2.72;;;0.93;;
56427;SDS011;42331;53.578;9.760;2023-08-06T03:49:09;1.38;;;0.77;;
56427;SDS011;42331;53.578;9.760;2023-08-06T03:51:40;2.45;;;0.95;;
56427;SDS011;42331;53.578;9.760;2023-08-06T03:54:11;2.37;;;1.00;;
56427;SDS011;42331;53.578;9.760;2023-08-06T03:56:41;1.95;;;1.08;;
56427;SDS011;42331;53.578;9.760;2023-08-06T03:59:12;1.67;;;1.07;;
56427;SDS011;42331;53.578;9.760;2023-08-06T04:01:43;1.88;;;1.30;;
56427;SDS011;42331;53.578;9.760;2023-08-06T04:04:14;2.17;;;1.23;;
56427;SDS011;42331;53.578;9.760;2023-08-06T04:06:44;1.80;;;1.02;;
56427;SDS011;42331;53.578;9.760;2023-08-06T04:09:15;1.33;;;0.80;;
56427;SDS011;42331;53.578;9.760;2023-08-06T04:11:46;1.70;;;0.90;;
56427;SDS011;42331;53.578;9.760;2023-08-06T04:14:17;1.73;;;1.17;;
56427;SDS011;42331;53.578;9.760;2023-08-06T04:16:47;1.80;;;1.03;;
56427;SDS011;42331;53.578;9.760;2023-08-06T04:19:18;1.63;;;0.85;;
56427;SDS011;42331;53.578;9.760;2023-08-06T04:21:49;1.27;;;0.80;;
56427;SDS011;42331;53.578;9.760;2023-08-06T04:24:19;1.23;;;0.77;;
56427;SDS011;42331;53.578;9.760;2023-08-06T04:26:50;1.60;;;1.02;;
56427;SDS011;42331;53.578;9.760;2023-08-06T04:29:21;1.97;;;0.87;;
56427;SDS011;42331;53.578;9.760;2023-08-06T04:31:52;1.40;;;0.70;;
56427;SDS011;42331;53.578;9.760;2023-08-06T04:34:22;1.58;;;0.82;;
56427;SDS011;42331;53.578;9.760;2023-08-06T04:36:53;2.35;;;1.25;;
56427;SDS011;42331;53.578;9.760;2023-08-06T04:39:24;1.73;;;0.90;;
56427;SDS011;42331;53.578;9.760;2023-08-06T04:41:57;1.60;;;0.90;;
56427;SDS011;42331;53.578;9.760;2023-08-06T04:44:28;1.73;;;0.95;;
56427;SDS011;42331;53.578;9.760;2023-08-06T04:46:59;2.40;;;1.25;;
56427;SDS011;42331;53.578;9.760;2023-08-06T04:49:30;1.13;;;0.68;;
56427;SDS011;42331;53.578;9.760;2023-08-06T04:52:00;1.48;;;0.90;;
56427;SDS011;42331;53.578;9.760;2023-08-06T04:54:31;1.05;;;0.57;;
56427;SDS011;42331;53.578;9.760;2023-08-06T04:57:02;1.60;;;0.90;;
56427;SDS011;42331;53.578;9.760;2023-08-06T04:59:33;2.20;;;1.10;;
56427;SDS011;42331;53.578;9.760;2023-08-06T05:02:03;1.50;;;0.80;;
56427;SDS011;42331;53.578;9.760;2023-08-06T05:04:34;1.65;;;0.93;;
56427;SDS011;42331;53.578;9.760;2023-08-06T05:07:05;1.20;;;0.60;;
56427;SDS011;42331;53.578;9.760;2023-08-06T05:09:36;1.48;;;0.73;;
56427;SDS011;42331;53.578;9.760;2023-08-06T05:12:07;1.23;;;0.73;;
56427;SDS011;42331;53.578;9.760;2023-08-06T05:14:38;1.60;;;0.70;;
56427;SDS011;42331;53.578;9.760;2023-08-06T05:17:08;1.43;;;0.80;;
56427;SDS011;42331;53.578;9.760;2023-08-06T05:19:39;1.95;;;1.20;;
56427;SDS011;42331;53.578;9.760;2023-08-06T05:22:10;2.47;;;0.88;;
56427;SDS011;42331;53.578;9.760;2023-08-06T05:24:40;1.30;;;0.95;;
56427;SDS011;42331;53.578;9.760;2023-08-06T05:27:11;1.50;;;0.80;;
56427;SDS011;42331;53.578;9.760;2023-08-06T05:29:42;2.38;;;1.02;;
56427;SDS011;42331;53.578;9.760;2023-08-06T05:32:13;1.60;;;0.82;;
56427;SDS011;42331;53.578;9.760;2023-08-06T05:34:44;2.15;;;1.25;;
56427;SDS011;42331;53.578;9.760;2023-08-06T05:37:14;1.55;;;0.80;;
56427;SDS011;42331;53.578;9.760;2023-08-06T05:39:45;1.17;;;0.63;;
56427;SDS011;42331;53.578;9.760;2023-08-06T05:42:16;1.75;;;0.95;;
56427;SDS011;42331;53.578;9.760;2023-08-06T05:44:47;1.05;;;0.70;;
56427;SDS011;42331;53.578;9.760;2023-08-06T05:47:17;1.83;;;1.00;;
56427;SDS011;42331;53.578;9.760;2023-08-06T05:49:49;1.42;;;0.80;;
56427;SDS011;42331;53.578;9.760;2023-08-06T05:52:20;0.88;;;0.50;;
56427;SDS011;42331;53.578;9.760;2023-08-06T05:54:51;1.63;;;0.80;;
56427;SDS011;42331;53.578;9.760;2023-08-06T05:57:21;0.93;;;0.52;;
56427;SDS011;42331;53.578;9.760;2023-08-06T05:59:52;1.13;;;0.80;;
56427;SDS011;42331;53.578;9.760;2023-08-06T06:02:23;1.35;;;0.65;;
56427;SDS011;42331;53.578;9.760;2023-08-06T06:04:53;1.30;;;0.85;;
56427;SDS011;42331;53.578;9.760;2023-08-06T06:07:24;1.65;;;1.02;;
56427;SDS011;42331;53.578;9.760;2023-08-06T06:09:55;1.30;;;0.65;;
56427;SDS011;42331;53.578;9.760;2023-08-06T06:12:25;1.75;;;0.80;;
56427;SDS011;42331;53.578;9.760;2023-08-06T06:14:56;1.50;;;0.83;;
56427;SDS011;42331;53.578;9.760;2023-08-06T06:17:27;2.10;;;0.90;;
56427;SDS011;42331;53.578;9.760;2023-08-06T06:22:30;0.80;;;0.60;;
56427;SDS011;42331;53.578;9.760;2023-08-06T06:25:00;2.33;;;1.02;;
56427;SDS011;42331;53.578;9.760;2023-08-06T06:27:31;1.73;;;1.08;;
56427;SDS011;42331;53.578;9.760;2023-08-06T06:30:02;1.57;;;0.90;;
56427;SDS011;42331;53.578;9.760;2023-08-06T06:32:34;1.58;;;0.95;;
56427;SDS011;42331;53.578;9.760;2023-08-06T06:35:05;1.33;;;0.77;;
56427;SDS011;42331;53.578;9.760;2023-08-06T06:37:35;2.33;;;1.00;;
56427;SDS011;42331;53.578;9.760;2023-08-06T06:42:38;2.05;;;1.13;;
56427;SDS011;42331;53.578;9.760;2023-08-06T06:45:09;2.05;;;0.88;;
56427;SDS011;42331;53.578;9.760;2023-08-06T06:47:40;1.30;;;0.77;;
56427;SDS011;42331;53.578;9.760;2023-08-06T06:50:10;1.83;;;1.08;;
56427;SDS011;42331;53.578;9.760;2023-08-06T06:52:41;1.38;;;0.80;;
56427;SDS011;42331;53.578;9.760;2023-08-06T06:55:12;2.00;;;0.98;;
56427;SDS011;42331;53.578;9.760;2023-08-06T06:57:43;1.77;;;1.10;;
56427;SDS011;42331;53.578;9.760;2023-08-06T07:00:13;2.00;;;1.05;;
56427;SDS011;42331;53.578;9.760;2023-08-06T07:02:44;2.00;;;1.10;;
56427;SDS011;42331;53.578;9.760;2023-08-06T07:05:15;1.15;;;0.80;;
56427;SDS011;42331;53.578;9.760;2023-08-06T07:07:46;1.40;;;0.80;;
56427;SDS011;42331;53.578;9.760;2023-08-06T07:10:16;1.50;;;0.80;;
56427;SDS011;42331;53.578;9.760;2023-08-06T07:12:47;1.17;;;0.90;;
56427;SDS011;42331;53.578;9.760;2023-08-06T07:15:18;1.55;;;1.10;;
56427;SDS011;42331;53.578;9.760;2023-08-06T07:17:48;2.07;;;1.10;;
56427;SDS011;42331;53.578;9.760;2023-08-06T07:20:19;1.33;;;0.97;;
56427;SDS011;42331;53.578;9.760;2023-08-06T07:22:50;1.70;;;1.03;;
56427;SDS011;42331;53.578;9.760;2023-08-06T07:25:20;1.50;;;0.70;;
56427;SDS011;42331;53.578;9.760;2023-08-06T07:27:51;1.20;;;0.70;;
56427;SDS011;42331;53.578;9.760;2023-08-06T07:30:22;3.33;;;1.00;;
56427;SDS011;42331;53.578;9.760;2023-08-06T07:32:52;2.07;;;0.87;;
56427;SDS011;42331;53.578;9.760;2023-08-06T07:35:23;2.10;;;1.00;;
56427;SDS011;42331;53.578;9.760;2023-08-06T07:37:54;2.90;;;1.10;;
56427;SDS011;42331;53.578;9.760;2023-08-06T07:40:25;1.67;;;0.88;;
56427;SDS011;42331;53.578;9.760;2023-08-06T07:42:55;1.57;;;0.90;;
56427;SDS011;42331;53.578;9.760;2023-08-06T07:45:26;1.53;;;0.77;;
56427;SDS011;42331;53.578;9.760;2023-08-06T07:47:57;2.08;;;1.00;;
56427;SDS011;42331;53.578;9.760;2023-08-06T07:50:27;2.47;;;1.10;;
56427;SDS011;42331;53.578;9.760;2023-08-06T07:52:58;1.77;;;1.00;;
56427;SDS011;42331;53.578;9.760;2023-08-06T07:55:29;2.70;;;1.13;;
56427;SDS011;42331;53.578;9.760;2023-08-06T07:57:59;1.57;;;0.80;;
56427;SDS011;42331;53.578;9.760;2023-08-06T08:00:31;1.83;;;1.00;;
56427;SDS011;42331;53.578;9.760;2023-08-06T08:03:01;1.35;;;0.98;;
56427;SDS011;42331;53.578;9.760;2023-08-06T08:05:32;2.63;;;0.90;;
56427;SDS011;42331;53.578;9.760;2023-08-06T08:08:02;2.05;;;1.17;;
56427;SDS011;42331;53.578;9.760;2023-08-06T08:10:34;1.50;;;0.90;;
56427;SDS011;42331;53.578;9.760;2023-08-06T08:13:05;2.05;;;0.90;;
56427;SDS011;42331;53.578;9.760;2023-08-06T08:15:36;3.22;;;1.60;;
56427;SDS011;42331;53.578;9.760;2023-08-06T08:18:07;2.37;;;1.23;;
56427;SDS011;42331;53.578;9.760;2023-08-06T08:20:38;1.70;;;0.83;;
56427;SDS011;42331;53.578;9.760;2023-08-06T08:23:08;1.73;;;1.20;;
56427;SDS011;42331;53.578;9.760;2023-08-06T08:25:39;2.33;;;1.30;;
56427;SDS011;42331;53.578;9.760;2023-08-06T08:28:10;2.47;;;1.10;;
56427;SDS011;42331;53.578;9.760;2023-08-06T08:30:41;1.60;;;1.00;;
56427;SDS011;42331;53.578;9.760;2023-08-06T08:33:11;2.07;;;0.90;;
56427;SDS011;42331;53.578;9.760;2023-08-06T08:35:42;1.03;;;0.63;;
56427;SDS011;42331;53.578;9.760;2023-08-06T08:38:13;2.13;;;1.10;;
56427;SDS011;42331;53.578;9.760;2023-08-06T08:40:47;1.47;;;0.77;;
56427;SDS011;42331;53.578;9.760;2023-08-06T08:43:22;2.22;;;1.08;;
56427;SDS011;42331;53.578;9.760;2023-08-06T08:45:53;1.90;;;1.20;;
56427;SDS011;42331;53.578;9.760;2023-08-06T08:48:25;3.15;;;0.90;;
56427;SDS011;42331;53.578;9.760;2023-08-06T08:50:57;2.22;;;1.25;;
56427;SDS011;42331;53.578;9.760;2023-08-06T08:53:28;2.55;;;1.17;;
56427;SDS011;42331;53.578;9.760;2023-08-06T08:56:00;3.03;;;1.17;;
56427;SDS011;42331;53.578;9.760;2023-08-06T08:58:32;2.53;;;1.40;;
56427;SDS011;42331;53.578;9.760;2023-08-06T09:01:05;1.85;;;1.00;;
56427;SDS011;42331;53.578;9.760;2023-08-06T09:03:37;1.40;;;0.90;;
56427;SDS011;42331;53.578;9.760;2023-08-06T09:06:09;3.03;;;1.10;;
56427;SDS011;42331;53.578;9.760;2023-08-06T09:08:47;3.67;;;1.30;;
56427;SDS011;42331;53.578;9.760;2023-08-06T09:11:23;2.08;;;1.52;;
56427;SDS011;42331;53.578;9.760;2023-08-06T09:13:54;1.80;;;1.03;;
56427;SDS011;42331;53.578;9.760;2023-08-06T09:16:26;2.22;;;1.23;;
56427;SDS011;42331;53.578;9.760;2023-08-06T09:19:00;1.90;;;1.30;;
56427;SDS011;42331;53.578;9.760;2023-08-06T09:21:38;1.50;;;0.70;;
56427;SDS011;42331;53.578;9.760;2023-08-06T09:26:41;1.52;;;0.95;;
56427;SDS011;42331;53.578;9.760;2023-08-06T09:29:13;1.77;;;0.88;;
56427;SDS011;42331;53.578;9.760;2023-08-06T09:31:48;1.75;;;0.90;;
56427;SDS011;42331;53.578;9.760;2023-08-06T09:34:22;1.98;;;1.05;;
56427;SDS011;42331;53.578;9.760;2023-08-06T09:36:53;1.05;;;0.70;;
56427;SDS011;42331;53.578;9.760;2023-08-06T09:39:28;1.77;;;1.00;;
56427;SDS011;42331;53.578;9.760;2023-08-06T09:42:00;2.08;;;1.30;;
56427;SDS011;42331;53.578;9.760;2023-08-06T09:44:32;1.73;;;1.02;;
56427;SDS011;42331;53.578;9.760;2023-08-06T09:47:04;1.77;;;1.00;;
56427;SDS011;42331;53.578;9.760;2023-08-06T09:52:05;2.77;;;1.40;;
56427;SDS011;42331;53.578;9.760;2023-08-06T09:54:38;3.05;;;1.33;;
56427;SDS011;42331;53.578;9.760;2023-08-06T09:57:09;2.40;;;1.20;;
56427;SDS011;42331;53.578;9.760;2023-08-06T09:59:41;1.73;;;1.00;;
56427;SDS011;42331;53.578;9.760;2023-08-06T10:02:13;1.70;;;1.10;;
56427;SDS011;42331;53.578;9.760;2023-08-06T10:04:44;2.40;;;1.30;;
56427;SDS011;42331;53.578;9.760;2023-08-06T10:09:48;2.05;;;1.23;;
56427;SDS011;42331;53.578;9.760;2023-08-06T10:12:19;1.57;;;0.93;;
56427;SDS011;42331;53.578;9.760;2023-08-06T10:14:51;1.40;;;0.85;;
56427;SDS011;42331;53.578;9.760;2023-08-06T10:17:25;1.17;;;0.65;;
56427;SDS011;42331;53.578;9.760;2023-08-06T10:19:57;1.20;;;0.65;;
56427;SDS011;42331;53.578;9.760;2023-08-06T10:22:29;1.25;;;0.82;;
56427;SDS011;42331;53.578;9.760;2023-08-06T10:25:03;1.20;;;0.60;;
56427;SDS011;42331;53.578;9.760;2023-08-06T10:27:35;1.50;;;0.90;;
56427;SDS011;42331;53.578;9.760;2023-08-06T10:30:25;1.20;;;0.80;;
56427;SDS011;42331;53.578;9.760;2023-08-06T10:33:02;1.35;;;0.85;;
56427;SDS011;42331;53.578;9.760;2023-08-06T10:35:44;1.77;;;0.90;;
56427;SDS011;42331;53.578;9.760;2023-08-06T10:38:24;1.25;;;0.70;;
56427;SDS011;42331;53.578;9.760;2023-08-06T10:46:02;1.95;;;0.60;;
56427;SDS011;42331;53.578;9.760;2023-08-06T10:48:40;1.08;;;0.63;;
56427;SDS011;42331;53.578;9.760;2023-08-06T10:51:12;1.15;;;0.77;;
56427;SDS011;42331;53.578;9.760;2023-08-06T10:53:48;1.48;;;0.75;;
56427;SDS011;42331;53.578;9.760;2023-08-06T10:56:20;1.20;;;0.70;;
56427;SDS011;42331;53.578;9.760;2023-08-06T10:58:55;1.13;;;0.65;;
56427;SDS011;42331;53.578;9.760;2023-08-06T11:01:28;1.83;;;0.98;;
56427;SDS011;42331;53.578;9.760;2023-08-06T11:04:01;1.48;;;0.90;;
56427;SDS011;42331;53.578;9.760;2023-08-06T11:06:32;2.85;;;1.02;;
56427;SDS011;42331;53.578;9.760;2023-08-06T11:09:03;3.27;;;1.13;;
56427;SDS011;42331;53.578;9.760;2023-08-06T11:11:34;1.97;;;1.10;;
56427;SDS011;42331;53.578;9.760;2023-08-06T11:14:05;1.80;;;1.17;;
56427;SDS011;42331;53.578;9.760;2023-08-06T11:16:35;1.07;;;0.67;;
56427;SDS011;42331;53.578;9.760;2023-08-06T11:19:07;1.30;;;0.77;;
56427;SDS011;42331;53.578;9.760;2023-08-06T11:21:39;1.30;;;0.70;;
56427;SDS011;42331;53.578;9.760;2023-08-06T11:24:10;2.05;;;0.90;;
56427;SDS011;42331;53.578;9.760;2023-08-06T11:26:41;1.20;;;0.80;;
56427;SDS011;42331;53.578;9.760;2023-08-06T11:29:12;1.48;;;0.80;;
56427;SDS011;42331;53.578;9.760;2023-08-06T11:31:46;2.85;;;1.00;;
56427;SDS011;42331;53.578;9.760;2023-08-06T11:34:16;1.50;;;0.80;;
56427;SDS011;42331;53.578;9.760;2023-08-06T11:36:47;1.90;;;0.93;;
56427;SDS011;42331;53.578;9.760;2023-08-06T11:39:18;1.07;;;0.63;;
56427;SDS011;42331;53.578;9.760;2023-08-06T11:41:49;1.60;;;1.00;;
56427;SDS011;42331;53.578;9.760;2023-08-06T11:44:21;1.20;;;0.70;;
56427;SDS011;42331;53.578;9.760;2023-08-06T11:46:53;1.45;;;0.80;;
56427;SDS011;42331;53.578;9.760;2023-08-06T11:49:47;1.40;;;0.73;;
56427;SDS011;42331;53.578;9.760;2023-08-06T11:52:19;1.30;;;0.77;;
56427;SDS011;42331;53.578;9.760;2023-08-06T11:55:00;2.05;;;0.88;;
56427;SDS011;42331;53.578;9.760;2023-08-06T11:57:34;1.87;;;0.90;;
56427;SDS011;42331;53.578;9.760;2023-08-06T12:00:12;0.93;;;0.55;;
56427;SDS011;42331;53.578;9.760;2023-08-06T12:02:44;1.00;;;0.70;;
56427;SDS011;42331;53.578;9.760;2023-08-06T12:05:17;1.50;;;0.80;;
56427;SDS011;42331;53.578;9.760;2023-08-06T12:10:22;1.95;;;1.02;;
56427;SDS011;42331;53.578;9.760;2023-08-06T12:12:55;1.35;;;0.80;;
56427;SDS011;42331;53.578;9.760;2023-08-06T12:15:26;1.97;;;0.97;;
56427;SDS011;42331;53.578;9.760;2023-08-06T12:17:57;1.40;;;0.80;;
56427;SDS011;42331;53.578;9.760;2023-08-06T12:20:27;1.33;;;0.70;;
56427;SDS011;42331;53.578;9.760;2023-08-06T12:22:58;1.20;;;0.90;;
56427;SDS011;42331;53.578;9.760;2023-08-06T12:25:29;2.17;;;0.70;;
56427;SDS011;42331;53.578;9.760;2023-08-06T12:28:00;2.03;;;0.93;;
56427;SDS011;42331;53.578;9.760;2023-08-06T12:30:31;1.55;;;0.95;;
56427;SDS011;42331;53.578;9.760;2023-08-06T12:33:02;1.63;;;0.93;;
56427;SDS011;42331;53.578;9.760;2023-08-06T12:35:36;1.88;;;0.88;;
56427;SDS011;42331;53.578;9.760;2023-08-06T12:38:08;1.77;;;0.70;;
56427;SDS011;42331;53.578;9.760;2023-08-06T12:40:39;1.53;;;0.90;;
56427;SDS011;42331;53.578;9.760;2023-08-06T12:43:11;0.93;;;0.63;;
56427;SDS011;42331;53.578;9.760;2023-08-06T12:45:42;1.25;;;0.60;;
56427;SDS011;42331;53.578;9.760;2023-08-06T12:48:12;1.30;;;0.80;;
56427;SDS011;42331;53.578;9.760;2023-08-06T12:50:44;1.27;;;0.80;;
56427;SDS011;42331;53.578;9.760;2023-08-06T12:53:14;1.80;;;1.10;;
56427;SDS011;42331;53.578;9.760;2023-08-06T12:55:47;1.50;;;0.70;;
56427;SDS011;42331;53.578;9.760;2023-08-06T12:58:18;1.27;;;0.70;;
56427;SDS011;42331;53.578;9.760;2023-08-06T13:00:49;1.33;;;0.63;;
56427;SDS011;42331;53.578;9.760;2023-08-06T13:03:19;1.57;;;0.87;;
56427;SDS011;42331;53.578;9.760;2023-08-06T13:05:50;1.60;;;0.83;;
56427;SDS011;42331;53.578;9.760;2023-08-06T13:08:21;1.03;;;0.57;;
56427;SDS011;42331;53.578;9.760;2023-08-06T13:10:51;1.30;;;0.80;;
56427;SDS011;42331;53.578;9.760;2023-08-06T13:13:22;2.27;;;1.20;;
56427;SDS011;42331;53.578;9.760;2023-08-06T13:15:56;1.73;;;1.05;;
56427;SDS011;42331;53.578;9.760;2023-08-06T13:18:26;1.23;;;0.83;;
56427;SDS011;42331;53.578;9.760;2023-08-06T13:20:59;1.88;;;0.80;;
56427;SDS011;42331;53.578;9.760;2023-08-06T13:23:30;1.42;;;0.77;;
56427;SDS011;42331;53.578;9.760;2023-08-06T13:26:01;1.50;;;0.77;;
56427;SDS011;42331;53.578;9.760;2023-08-06T13:28:32;1.37;;;0.93;;
56427;SDS011;42331;53.578;9.760;2023-08-06T13:31:02;1.63;;;0.87;;
56427;SDS011;42331;53.578;9.760;2023-08-06T13:33:33;0.87;;;0.60;;
56427;SDS011;42331;53.578;9.760;2023-08-06T13:36:07;2.10;;;1.00;;
56427;SDS011;42331;53.578;9.760;2023-08-06T13:38:40;2.63;;;1.00;;
56427;SDS011;42331;53.578;9.760;2023-08-06T13:41:14;1.48;;;0.85;;
56427;SDS011;42331;53.578;9.760;2023-08-06T13:44:00;1.92;;;1.08;;
56427;SDS011;42331;53.578;9.760;2023-08-06T13:46:36;1.73;;;1.00;;
56427;SDS011;42331;53.578;9.760;2023-08-06T13:49:07;1.77;;;1.00;;
56427;SDS011;42331;53.578;9.760;2023-08-06T13:51:38;1.27;;;0.77;;
56427;SDS011;42331;53.578;9.760;2023-08-06T13:54:09;1.50;;;0.90;;
56427;SDS011;42331;53.578;9.760;2023-08-06T13:56:40;1.20;;;0.70;;
56427;SDS011;42331;53.578;9.760;2023-08-06T13:59:10;1.03;;;0.60;;
56427;SDS011;42331;53.578;9.760;2023-08-06T14:01:43;1.38;;;0.70;;
56427;SDS011;42331;53.578;9.760;2023-08-06T14:04:14;1.97;;;1.00;;
56427;SDS011;42331;53.578;9.760;2023-08-06T14:06:45;1.60;;;0.70;;
56427;SDS011;42331;53.578;9.760;2023-08-06T14:09:16;0.98;;;0.60;;
56427;SDS011;42331;53.578;9.760;2023-08-06T14:11:48;0.93;;;0.57;;
56427;SDS011;42331;53.578;9.760;2023-08-06T14:14:19;1.52;;;0.50;;
56427;SDS011;42331;53.578;9.760;2023-08-06T14:16:56;1.20;;;0.40;;
56427;SDS011;42331;53.578;9.760;2023-08-06T14:19:26;0.68;;;0.40;;
56427;SDS011;42331;53.578;9.760;2023-08-06T14:21:57;0.63;;;0.40;;
56427;SDS011;42331;53.578;9.760;2023-08-06T14:24:28;0.40;;;0.30;;
56427;SDS011;42331;53.578;9.760;2023-08-06T14:26:59;1.03;;;0.60;;
56427;SDS011;42331;53.578;9.760;2023-08-06T14:29:29;1.03;;;0.63;;
56427;SDS011;42331;53.578;9.760;2023-08-06T14:32:00;2.80;;;0.50;;
56427;SDS011;42331;53.578;9.760;2023-08-06T14:34:31;0.70;;;0.40;;
56427;SDS011;42331;53.578;9.760;2023-08-06T14:37:02;0.60;;;0.30;;
56427;SDS011;42331;53.578;9.760;2023-08-06T14:39:33;1.40;;;0.40;;
56427;SDS011;42331;53.578;9.760;2023-08-06T14:42:04;0.50;;;0.40;;
56427;SDS011;42331;53.578;9.760;2023-08-06T14:44:35;0.57;;;0.30;;
56427;SDS011;42331;53.578;9.760;2023-08-06T14:47:06;1.20;;;0.63;;
56427;SDS011;42331;53.578;9.760;2023-08-06T14:49:37;0.68;;;0.43;;
56427;SDS011;42331;53.578;9.760;2023-08-06T14:52:08;0.55;;;0.40;;
56427;SDS011;42331;53.578;9.760;2023-08-06T14:54:39;0.90;;;0.50;;
56427;SDS011;42331;53.578;9.760;2023-08-06T14:57:10;0.65;;;0.40;;
56427;SDS011;42331;53.578;9.760;2023-08-06T14:59:42;0.80;;;0.50;;
56427;SDS011;42331;53.578;9.760;2023-08-06T15:02:13;0.95;;;0.43;;
56427;SDS011;42331;53.578;9.760;2023-08-06T15:04:44;0.93;;;0.40;;
56427;SDS011;42331;53.578;9.760;2023-08-06T15:07:14;0.63;;;0.30;;
56427;SDS011;42331;53.578;9.760;2023-08-06T15:09:45;0.67;;;0.33;;
56427;SDS011;42331;53.578;9.760;2023-08-06T15:12:16;0.52;;;0.20;;
56427;SDS011;42331;53.578;9.760;2023-08-06T15:14:47;0.65;;;0.35;;
56427;SDS011;42331;53.578;9.760;2023-08-06T15:17:18;0.50;;;0.30;;
56427;SDS011;42331;53.578;9.760;2023-08-06T15:19:49;0.93;;;0.47;;
56427;SDS011;42331;53.578;9.760;2023-08-06T15:22:19;0.70;;;0.40;;
56427;SDS011;42331;53.578;9.760;2023-08-06T15:24:50;1.00;;;0.43;;
56427;SDS011;42331;53.578;9.760;2023-08-06T15:27:21;0.63;;;0.43;;
56427;SDS011;42331;53.578;9.760;2023-08-06T15:29:52;0.85;;;0.40;;
56427;SDS011;42331;53.578;9.760;2023-08-06T15:32:23;1.75;;;0.63;;
56427;SDS011;42331;53.578;9.760;2023-08-06T15:34:54;0.77;;;0.40;;
56427;SDS011;42331;53.578;9.760;2023-08-06T15:37:26;1.08;;;0.30;;
56427;SDS011;42331;53.578;9.760;2023-08-06T15:39:57;0.50;;;0.30;;
56427;SDS011;42331;53.578;9.760;2023-08-06T15:42:28;0.80;;;0.40;;
56427;SDS011;42331;53.578;9.760;2023-08-06T15:45:01;0.95;;;0.57;;